Time;durP1;ratioP1;P1;durP2;ratioP2;P2;SDS_P1;SDS_P2;PMS_P1;PMS_P2;Temp;Humidity;BMP_temperature;BMP_pressure;BME280_temperature;BME280_humidity;BME280_pressure;Samples;Min_cycle;Max_cycle;Signal;HPM_P1;HPM_P2
2023/05/20 00:01:00;;;;;;;9.63;6.55;;;;;;;;;;9493051;30;20059;-66
2023/05/20 00:05:54;;;;;;;11.85;6.82;;;;;;;;;;9502162;30;20467;-66
2023/05/20 00:10:48;;;;;;;9.82;6.95;;;;;;;;;;9497858;30;20102;-65
2023/05/20 00:15:44;;;;;;;9.23;6.60;;;;;;;;;;9493808;30;20063;-68
2023/05/20 00:20:40;;;;;;;12.35;7.00;;;;;;;;;;9492412;30;20512;-65
2023/05/20 00:25:33;;;;;;;11.60;6.80;;;;;;;;;;9491014;30;20524;-64
2023/05/20 00:30:27;;;;;;;12.30;7.55;;;;;;;;;;9476094;30;20126;-66
2023/05/20 00:35:21;;;;;;;11.02;8.05;;;;;;;;;;9497943;30;20040;-66
2023/05/20 00:40:15;;;;;;;8.98;7.40;;;;;;;;;;9483041;30;20052;-66
2023/05/20 00:45:09;;;;;;;9.10;7.20;;;;;;;;;;9482653;30;20519;-63
2023/05/20 00:50:06;;;;;;;10.90;7.93;;;;;;;;;;9488290;30;20064;-64
2023/05/20 00:55:00;;;;;;;15.30;7.05;;;;;;;;;;9492869;30;20409;-63
2023/05/20 00:59:53;;;;;;;12.65;8.27;;;;;;;;;;9498346;30;20082;-64
2023/05/20 01:04:47;;;;;;;7.47;6.70;;;;;;;;;;9485003;30;20060;-64
2023/05/20 01:09:41;;;;;;;9.18;8.27;;;;;;;;;;9499512;30;20524;-64
2023/05/20 01:14:57;;;;;;;13.90;9.25;;;;;;;;;;9495936;30;20509;-63
2023/05/20 01:19:52;;;;;;;11.57;10.35;;;;;;;;;;9490450;30;20056;-64
2023/05/20 01:24:52;;;;;;;11.70;7.88;;;;;;;;;;9481128;30;20052;-64
2023/05/20 01:29:49;;;;;;;11.73;8.30;;;;;;;;;;9500185;30;20060;-64
2023/05/20 01:34:44;;;;;;;;;;;;;;;;;;9497796;30;20044;-64
2023/05/20 01:39:42;;;;;;;9.73;8.73;;;;;;;;;;9494446;29;19930;-64
2023/05/20 01:44:36;;;;;;;10.98;9.15;;;;;;;;;;9491627;30;20218;-64
2023/05/20 01:49:32;;;;;;;16.58;8.77;;;;;;;;;;9493889;30;20129;-64
2023/05/20 01:54:25;;;;;;;12.20;8.57;;;;;;;;;;9509083;30;20171;-64
2023/05/20 01:59:22;;;;;;;13.23;8.95;;;;;;;;;;9492077;30;20420;-64
2023/05/20 02:04:20;;;;;;;10.05;8.65;;;;;;;;;;9510257;30;20063;-64
2023/05/20 02:09:16;;;;;;;9.57;8.57;;;;;;;;;;9497620;30;20059;-65
2023/05/20 02:14:10;;;;;;;9.70;8.18;;;;;;;;;;9495825;30;20062;-63
2023/05/20 02:19:03;;;;;;;10.43;7.80;;;;;;;;;;9505736;30;20064;-63
2023/05/20 02:23:56;;;;;;;12.63;9.02;;;;;;;;;;9502259;30;20049;-62
2023/05/20 02:28:51;;;;;;;14.20;9.20;;;;;;;;;;9494626;30;20090;-63
2023/05/20 02:33:46;;;;;;;10.82;9.02;;;;;;;;;;9504835;30;20082;-63
2023/05/20 02:38:40;;;;;;;14.60;8.88;;;;;;;;;;9487397;30;20068;-64
2023/05/20 02:43:35;;;;;;;12.13;7.57;;;;;;;;;;9491760;30;20424;-63
2023/05/20 02:48:28;;;;;;;13.98;8.60;;;;;;;;;;9488826;30;20110;-63
2023/05/20 02:53:21;;;;;;;10.80;9.10;;;;;;;;;;9518636;29;20060;-64
2023/05/20 02:58:14;;;;;;;9.90;7.95;;;;;;;;;;9495250;30;20052;-64
2023/05/20 03:03:12;;;;;;;10.02;8.23;;;;;;;;;;9504141;30;20091;-64
2023/05/20 03:08:10;;;;;;;9.63;7.50;;;;;;;;;;9483739;30;20135;-64
2023/05/20 03:13:21;;;;;;;8.73;7.82;;;;;;;;;;9487118;30;20409;-64
2023/05/20 03:18:16;;;;;;;8.75;7.35;;;;;;;;;;9480471;30;20064;-64
2023/05/20 03:23:09;;;;;;;11.95;7.63;;;;;;;;;;9484029;30;20064;-64
2023/05/20 03:28:03;;;;;;;9.20;7.63;;;;;;;;;;9497632;30;20150;-65
2023/05/20 03:33:01;;;;;;;9.13;7.07;;;;;;;;;;9502377;30;20113;-64
2023/05/20 03:37:55;;;;;;;8.95;7.63;;;;;;;;;;9503709;30;20569;-64
2023/05/20 03:42:51;;;;;;;13.27;8.23;;;;;;;;;;9486787;30;20064;-64
2023/05/20 03:47:46;;;;;;;9.30;8.18;;;;;;;;;;9486737;30;20064;-63
2023/05/20 03:52:41;;;;;;;12.00;7.75;;;;;;;;;;9516854;30;20090;-64
2023/05/20 03:57:36;;;;;;;9.95;8.20;;;;;;;;;;9479977;30;20064;-63
2023/05/20 04:02:29;;;;;;;13.40;7.70;;;;;;;;;;9501050;30;20052;-63
2023/05/20 04:07:23;;;;;;;11.25;8.23;;;;;;;;;;9502743;30;20139;-63
2023/05/20 04:12:18;;;;;;;11.15;7.78;;;;;;;;;;9490849;30;20052;-63
2023/05/20 04:17:10;;;;;;;10.82;7.32;;;;;;;;;;9520298;30;20063;-63
2023/05/20 04:22:05;;;;;;;12.30;7.15;;;;;;;;;;9513427;30;20082;-64
2023/05/20 04:26:57;;;;;;;7.75;6.95;;;;;;;;;;9496936;30;20056;-63
2023/05/20 04:31:52;;;;;;;9.82;7.53;;;;;;;;;;9472646;30;20056;-63
2023/05/20 04:36:46;;;;;;;10.73;7.22;;;;;;;;;;9508308;30;20135;-64
2023/05/20 04:41:39;;;;;;;11.15;7.78;;;;;;;;;;9498384;30;20056;-63
2023/05/20 04:46:32;;;;;;;9.60;8.52;;;;;;;;;;9518740;30;20087;-64
2023/05/20 04:51:26;;;;;;;9.15;7.85;;;;;;;;;;9503260;30;20052;-64
2023/05/20 04:56:19;;;;;;;16.95;8.43;;;;;;;;;;9494906;30;20450;-64
2023/05/20 05:01:13;;;;;;;7.93;7.13;;;;;;;;;;9508517;30;20052;-63
2023/05/20 05:06:06;;;;;;;10.30;8.40;;;;;;;;;;9498394;30;20416;-64
2023/05/20 05:11:00;;;;;;;12.77;8.18;;;;;;;;;;9502254;30;20063;-63
2023/05/20 05:16:00;;;;;;;9.63;8.63;;;;;;;;;;9500823;30;20052;-64
2023/05/20 05:21:02;;;;;;;12.45;10.00;;;;;;;;;;9495554;30;20470;-64
2023/05/20 05:25:56;;;;;;;8.85;7.45;;;;;;;;;;9490897;30;20060;-64
2023/05/20 05:30:49;;;;;;;9.80;8.52;;;;;;;;;;9506172;30;20052;-65
2023/05/20 05:35:43;;;;;;;14.80;9.10;;;;;;;;;;9514294;29;20060;-65
2023/05/20 05:40:36;;;;;;;12.48;9.13;;;;;;;;;;9506527;30;20060;-65
2023/05/20 05:45:31;;;;;;;10.15;8.55;;;;;;;;;;9505260;30;20516;-65
2023/05/20 05:50:25;;;;;;;16.55;9.65;;;;;;;;;;9504905;30;20087;-65
2023/05/20 05:55:18;;;;;;;13.07;9.73;;;;;;;;;;9498171;30;20068;-65
2023/05/20 06:00:13;;;;;;;13.07;10.98;;;;;;;;;;9501557;30;20126;-65
2023/05/20 06:05:12;;;;;;;9.70;8.70;;;;;;;;;;9493432;30;20088;-64
2023/05/20 06:10:07;;;;;;;12.60;10.50;;;;;;;;;;9497432;30;20052;-64
2023/05/20 06:15:01;;;;;;;10.98;9.88;;;;;;;;;;9495640;30;20117;-66
2023/05/20 06:19:55;;;;;;;12.60;10.32;;;;;;;;;;9495665;30;20123;-68
2023/05/20 06:24:48;;;;;;;12.35;9.85;;;;;;;;;;9510036;30;20091;-68
2023/05/20 06:29:42;;;;;;;16.42;10.77;;;;;;;;;;9497098;30;20118;-68
2023/05/20 06:34:37;;;;;;;13.77;11.40;;;;;;;;;;9488418;30;20048;-68
2023/05/20 06:39:31;;;;;;;16.17;11.32;;;;;;;;;;9508326;30;20067;-64
2023/05/20 06:44:25;;;;;;;16.27;10.27;;;;;;;;;;9486363;30;20524;-65
2023/05/20 06:49:38;;;;;;;18.60;11.65;;;;;;;;;;9493492;30;20068;-68
2023/05/20 06:54:34;;;;;;;13.32;10.77;;;;;;;;;;9499386;30;20098;-66
2023/05/20 06:59:28;;;;;;;14.10;12.70;;;;;;;;;;9508454;30;20099;-64
2023/05/20 07:04:21;;;;;;;15.73;11.43;;;;;;;;;;9496217;30;20064;-66
2023/05/20 07:09:14;;;;;;;13.20;10.90;;;;;;;;;;9500881;30;20060;-67
2023/05/20 07:14:08;;;;;;;14.18;12.18;;;;;;;;;;9495804;30;20081;-66
2023/05/20 07:19:00;;;;;;;16.05;11.43;;;;;;;;;;9494035;30;20174;-66
2023/05/20 07:23:55;;;;;;;15.05;11.38;;;;;;;;;;9496547;30;20060;-67
2023/05/20 07:28:50;;;;;;;15.75;11.50;;;;;;;;;;9499805;30;20060;-68
2023/05/20 07:33:43;;;;;;;23.17;11.93;;;;;;;;;;9501980;30;20080;-68
2023/05/20 07:38:36;;;;;;;14.68;11.63;;;;;;;;;;9501446;30;20079;-68
2023/05/20 07:43:34;;;;;;;16.85;11.75;;;;;;;;;;9499397;30;20052;-67
2023/05/20 07:48:27;;;;;;;16.40;12.30;;;;;;;;;;9498543;30;20263;-69
2023/05/20 07:53:21;;;;;;;13.43;12.02;;;;;;;;;;9499880;30;20062;-71
2023/05/20 07:58:15;;;;;;;16.42;11.73;;;;;;;;;;9501206;30;20063;-70
2023/05/20 08:03:09;;;;;;;15.90;12.90;;;;;;;;;;9507901;30;20169;-68
2023/05/20 08:08:27;;;;;;;16.08;11.20;;;;;;;;;;9498243;30;20099;-68
2023/05/20 08:13:27;;;;;;;13.52;10.63;;;;;;;;;;9500965;30;20428;-68
2023/05/20 08:18:20;;;;;;;15.00;11.88;;;;;;;;;;9506252;30;20055;-68
2023/05/20 08:23:13;;;;;;;12.48;10.00;;;;;;;;;;9508218;29;20056;-69
2023/05/20 08:28:08;;;;;;;15.35;11.20;;;;;;;;;;9497255;30;20088;-69
2023/05/20 08:33:03;;;;;;;14.75;10.45;;;;;;;;;;9500297;30;20455;-68
2023/05/20 08:37:57;;;;;;;15.45;10.10;;;;;;;;;;9502730;30;20052;-69
2023/05/20 08:42:51;;;;;;;14.05;9.48;;;;;;;;;;9517276;30;20500;-69
2023/05/20 08:47:47;;;;;;;14.73;10.68;;;;;;;;;;9517142;30;20098;-68
2023/05/20 08:52:44;;;;;;;14.85;10.60;;;;;;;;;;9505281;30;20416;-70
2023/05/20 08:57:37;;;;;;;15.95;11.00;;;;;;;;;;9499971;30;20573;-70
2023/05/20 09:02:32;;;;;;;15.00;10.18;;;;;;;;;;9500893;30;20064;-69
2023/05/20 09:07:28;;;;;;;17.48;10.68;;;;;;;;;;9500862;30;20056;-69
2023/05/20 09:12:22;;;;;;;12.90;10.85;;;;;;;;;;9499562;30;20628;-69
2023/05/20 09:17:19;;;;;;;14.98;12.15;;;;;;;;;;9501308;30;20056;-69
2023/05/20 09:22:12;;;;;;;12.05;10.52;;;;;;;;;;9501330;30;20060;-70
2023/05/20 09:27:06;;;;;;;11.65;10.38;;;;;;;;;;9502957;30;20627;-71
2023/05/20 09:32:02;;;;;;;12.85;10.55;;;;;;;;;;9502765;30;20064;-69
2023/05/20 09:36:58;;;;;;;12.35;10.35;;;;;;;;;;9502178;30;20153;-68
2023/05/20 09:42:22;;;;;;;13.35;11.32;;;;;;;;;;9504434;30;20056;-68
2023/05/20 09:47:16;;;;;;;17.83;11.57;;;;;;;;;;9495207;30;20064;-68
2023/05/20 09:52:11;;;;;;;14.68;13.13;;;;;;;;;;9505759;30;20060;-68
2023/05/20 09:57:05;;;;;;;16.13;12.88;;;;;;;;;;9508135;30;20063;-68
2023/05/20 10:01:57;;;;;;;17.45;14.98;;;;;;;;;;9506370;30;20056;-68
2023/05/20 10:07:21;;;;;;;18.30;13.27;;;;;;;;;;9504005;30;20423;-70
2023/05/20 10:12:52;;;;;;;18.30;14.35;;;;;;;;;;9504569;30;20068;-70
2023/05/20 10:17:57;;;;;;;17.58;15.00;;;;;;;;;;9502896;30;20060;-70
2023/05/20 10:22:57;;;;;;;16.92;14.13;;;;;;;;;;9502521;30;20591;-69
2023/05/20 10:27:51;;;;;;;19.58;15.88;;;;;;;;;;9498040;30;20163;-69
2023/05/20 10:32:59;;;;;;;19.10;13.98;;;;;;;;;;9494321;30;20053;-69
2023/05/20 10:37:54;;;;;;;17.90;14.48;;;;;;;;;;9492482;30;20064;-68
2023/05/20 10:42:48;;;;;;;16.40;14.60;;;;;;;;;;9492474;30;20159;-68
2023/05/20 10:47:57;;;;;;;16.80;15.02;;;;;;;;;;9493853;30;20079;-68
2023/05/20 10:52:50;;;;;;;18.60;15.13;;;;;;;;;;9502393;30;20098;-67
2023/05/20 10:57:42;;;;;;;16.80;15.00;;;;;;;;;;9501189;30;20329;-68
2023/05/20 11:02:36;;;;;;;17.40;14.18;;;;;;;;;;9517137;30;20134;-64
2023/05/20 11:07:30;;;;;;;19.02;13.82;;;;;;;;;;9482123;30;20064;-64
2023/05/20 11:12:25;;;;;;;16.77;14.05;;;;;;;;;;9491368;30;20068;-67
2023/05/20 11:17:18;;;;;;;14.32;12.48;;;;;;;;;;9490668;30;20091;-65
2023/05/20 11:22:13;;;;;;;13.88;12.35;;;;;;;;;;9486024;30;20052;-66
2023/05/20 11:27:06;;;;;;;16.15;12.52;;;;;;;;;;9501649;30;20064;-65
2023/05/20 11:32:00;;;;;;;14.85;12.05;;;;;;;;;;9500036;30;20064;-64
2023/05/20 11:36:58;;;;;;;14.38;12.60;;;;;;;;;;9494377;30;20056;-65
2023/05/20 11:41:51;;;;;;;16.07;13.40;;;;;;;;;;9498127;30;20490;-64
2023/05/20 11:46:48;;;;;;;15.15;13.00;;;;;;;;;;9499469;30;20408;-70
2023/05/20 11:51:40;;;;;;;15.40;13.60;;;;;;;;;;9499027;30;20421;-64
2023/05/20 11:56:37;;;;;;;16.38;14.18;;;;;;;;;;9494259;30;20144;-64
2023/05/20 12:01:42;;;;;;;16.75;13.98;;;;;;;;;;9485832;30;20056;-64
2023/05/20 12:06:38;;;;;;;15.73;13.85;;;;;;;;;;9494413;30;20048;-65
2023/05/20 12:11:36;;;;;;;20.15;15.10;;;;;;;;;;9495843;30;20064;-66
2023/05/20 12:16:31;;;;;;;17.77;15.90;;;;;;;;;;9498858;30;20072;-66
2023/05/20 12:21:25;;;;;;;15.52;13.88;;;;;;;;;;9498465;30;20106;-66
2023/05/20 12:26:18;;;;;;;18.63;14.27;;;;;;;;;;9497378;30;20152;-68
2023/05/20 12:31:12;;;;;;;16.85;15.15;;;;;;;;;;9498335;30;20064;-66
2023/05/20 12:36:06;;;;;;;21.90;16.90;;;;;;;;;;9492848;30;20513;-65
2023/05/20 12:41:00;;;;;;;16.90;15.15;;;;;;;;;;9498995;30;20071;-65
2023/05/20 12:45:55;;;;;;;18.75;16.77;;;;;;;;;;9501785;30;20424;-65
2023/05/20 12:50:49;;;;;;;18.48;16.38;;;;;;;;;;9501437;30;20548;-66
2023/05/20 12:55:43;;;;;;;18.50;16.63;;;;;;;;;;9501938;30;20071;-66
2023/05/20 13:00:36;;;;;;;19.10;16.63;;;;;;;;;;9499154;30;20526;-65
2023/05/20 13:05:30;;;;;;;16.77;15.05;;;;;;;;;;9500816;30;20555;-65
2023/05/20 13:10:25;;;;;;;24.88;17.00;;;;;;;;;;9501572;30;20052;-65
2023/05/20 13:15:19;;;;;;;18.60;14.98;;;;;;;;;;9501426;30;20154;-65
2023/05/20 13:20:12;;;;;;;18.38;16.45;;;;;;;;;;9498976;30;20066;-66
2023/05/20 13:25:06;;;;;;;17.13;15.45;;;;;;;;;;9494139;30;20072;-66
2023/05/20 13:30:00;;;;;;;19.20;16.55;;;;;;;;;;9501000;30;20147;-66
2023/05/20 13:34:55;;;;;;;21.02;17.10;;;;;;;;;;9501119;30;20512;-65
2023/05/20 13:39:49;;;;;;;18.48;16.58;;;;;;;;;;9494493;30;20155;-66
2023/05/20 13:44:44;;;;;;;20.02;17.98;;;;;;;;;;9504307;30;20704;-69
2023/05/20 13:49:38;;;;;;;32.58;21.98;;;;;;;;;;9498077;30;20064;-65
2023/05/20 13:54:32;;;;;;;20.92;18.77;;;;;;;;;;9499845;30;20051;-65
2023/05/20 13:59:26;;;;;;;20.08;17.95;;;;;;;;;;9502694;30;20056;-65
2023/05/20 14:04:19;;;;;;;22.20;18.38;;;;;;;;;;9500902;30;20114;-66
2023/05/20 14:09:12;;;;;;;17.67;15.82;;;;;;;;;;9493672;30;20060;-66
2023/05/20 14:14:06;;;;;;;28.15;17.15;;;;;;;;;;9495655;30;20607;-67
2023/05/20 14:19:00;;;;;;;19.65;17.45;;;;;;;;;;9501367;30;20106;-66
2023/05/20 14:23:54;;;;;;;19.88;17.88;;;;;;;;;;9505999;30;20052;-66
2023/05/20 14:28:48;;;;;;;17.92;16.02;;;;;;;;;;9493561;30;20127;-66
2023/05/20 14:33:42;;;;;;;20.88;15.23;;;;;;;;;;9503213;30;20072;-66
2023/05/20 14:38:34;;;;;;;21.73;16.92;;;;;;;;;;9514789;30;20431;-68
2023/05/20 14:43:27;;;;;;;19.48;16.80;;;;;;;;;;9499066;30;20071;-67
2023/05/20 14:48:21;;;;;;;20.73;16.88;;;;;;;;;;9498599;30;20062;-67
2023/05/20 14:53:16;;;;;;;18.90;15.73;;;;;;;;;;9497673;30;20060;-67
2023/05/20 14:58:09;;;;;;;19.17;16.88;;;;;;;;;;9496304;30;20510;-67
2023/05/20 15:03:04;;;;;;;20.05;16.98;;;;;;;;;;9496308;30;20473;-67
2023/05/20 15:07:58;;;;;;;19.75;17.45;;;;;;;;;;9498946;30;20505;-67
2023/05/20 15:12:52;;;;;;;23.05;15.98;;;;;;;;;;9499120;30;20500;-67
2023/05/20 15:17:45;;;;;;;23.50;17.17;;;;;;;;;;9495389;30;20064;-67
2023/05/20 15:22:40;;;;;;;25.38;19.05;;;;;;;;;;9504360;30;20067;-67
2023/05/20 15:27:34;;;;;;;24.55;17.92;;;;;;;;;;9518761;30;20584;-66
2023/05/20 15:32:29;;;;;;;25.42;16.88;;;;;;;;;;9502770;30;20431;-67
2023/05/20 15:37:31;;;;;;;20.95;17.40;;;;;;;;;;9507482;30;20071;-67
2023/05/20 15:42:27;;;;;;;24.05;18.00;;;;;;;;;;9516093;30;20056;-67
2023/05/20 15:47:22;;;;;;;19.77;17.05;;;;;;;;;;9498792;30;20072;-67
2023/05/20 15:52:15;;;;;;;21.40;18.58;;;;;;;;;;9498892;30;20080;-67
2023/05/20 15:57:10;;;;;;;21.27;18.45;;;;;;;;;;9495991;30;20113;-67
2023/05/20 16:02:04;;;;;;;21.13;17.10;;;;;;;;;;9497495;30;20062;-66
2023/05/20 16:06:57;;;;;;;31.05;18.85;;;;;;;;;;9493354;30;20082;-65
2023/05/20 16:11:51;;;;;;;21.88;18.35;;;;;;;;;;9494315;30;20084;-67
2023/05/20 16:16:44;;;;;;;24.58;20.17;;;;;;;;;;9499205;30;20129;-68
2023/05/20 16:21:38;;;;;;;22.25;19.25;;;;;;;;;;9495763;30;20060;-68
2023/05/20 16:26:32;;;;;;;30.58;20.77;;;;;;;;;;9506480;30;20115;-68
2023/05/20 16:31:25;;;;;;;25.00;20.38;;;;;;;;;;9505302;30;20066;-68
2023/05/20 16:36:20;;;;;;;24.27;20.98;;;;;;;;;;9506434;30;20099;-68
2023/05/20 16:41:14;;;;;;;25.42;20.73;;;;;;;;;;9504114;30;20420;-68
2023/05/20 16:46:08;;;;;;;27.10;19.35;;;;;;;;;;9502937;30;20501;-66
2023/05/20 16:51:03;;;;;;;24.77;19.00;;;;;;;;;;9505165;30;20129;-70
2023/05/20 16:55:56;;;;;;;22.65;19.48;;;;;;;;;;9487132;30;20060;-69
2023/05/20 17:00:49;;;;;;;28.88;20.73;;;;;;;;;;9495920;30;20481;-67
2023/05/20 17:05:43;;;;;;;27.45;21.10;;;;;;;;;;9497755;30;20056;-68
2023/05/20 17:10:36;;;;;;;25.25;20.15;;;;;;;;;;9502649;30;20057;-69
2023/05/20 17:15:31;;;;;;;27.85;19.55;;;;;;;;;;9500418;30;20397;-70
2023/05/20 17:20:25;;;;;;;25.33;19.40;;;;;;;;;;9501324;30;20063;-70
2023/05/20 17:25:19;;;;;;;29.77;21.17;;;;;;;;;;9502518;30;20626;-73
2023/05/20 17:30:13;;;;;;;27.35;21.50;;;;;;;;;;9499265;30;20084;-72
2023/05/20 17:35:09;;;;;;;23.63;19.30;;;;;;;;;;9502152;30;20135;-75
2023/05/20 17:40:06;;;;;;;23.27;19.17;;;;;;;;;;9498564;30;20102;-76
2023/05/20 17:45:00;;;;;;;25.80;19.77;;;;;;;;;;9499303;30;20432;-73
2023/05/20 17:49:55;;;;;;;29.85;20.83;;;;;;;;;;9504400;30;20103;-73
2023/05/20 17:54:49;;;;;;;27.73;19.83;;;;;;;;;;9498816;30;20063;-71
2023/05/20 17:59:44;;;;;;;40.55;29.30;;;;;;;;;;9504457;30;20451;-71
2023/05/20 18:04:37;;;;;;;37.67;25.15;;;;;;;;;;9502107;30;20060;-71
2023/05/20 18:09:31;;;;;;;29.27;23.90;;;;;;;;;;9514239;30;20059;-72
2023/05/20 18:14:27;;;;;;;26.27;22.05;;;;;;;;;;9502398;30;20147;-72
2023/05/20 18:19:21;;;;;;;26.15;20.73;;;;;;;;;;9513602;30;20059;-73
2023/05/20 18:24:17;;;;;;;31.00;22.83;;;;;;;;;;9501616;30;20059;-73
2023/05/20 18:29:11;;;;;;;34.80;21.63;;;;;;;;;;9498931;30;20048;-72
2023/05/20 18:34:05;;;;;;;27.80;22.20;;;;;;;;;;9500502;30;20143;-71
2023/05/20 18:38:59;;;;;;;32.70;21.75;;;;;;;;;;9498253;30;20059;-70
2023/05/20 18:43:53;;;;;;;31.23;22.77;;;;;;;;;;9497499;30;20064;-71
2023/05/20 18:48:47;;;;;;;33.05;22.05;;;;;;;;;;9499755;30;20527;-75
2023/05/20 18:53:41;;;;;;;30.00;20.90;;;;;;;;;;9497297;30;20060;-72
2023/05/20 18:58:35;;;;;;;28.27;19.27;;;;;;;;;;9502275;30;20501;-74
2023/05/20 19:03:29;;;;;;;26.67;19.48;;;;;;;;;;9497038;30;20139;-74
2023/05/20 19:08:22;;;;;;;24.02;20.58;;;;;;;;;;9494178;30;20139;-74
2023/05/20 19:13:15;;;;;;;33.00;20.55;;;;;;;;;;9496178;30;20056;-73
2023/05/20 19:18:10;;;;;;;27.13;20.55;;;;;;;;;;9495795;30;20135;-74
2023/05/20 19:23:03;;;;;;;28.10;20.95;;;;;;;;;;9495566;30;20218;-73
2023/05/20 19:27:56;;;;;;;25.58;19.13;;;;;;;;;;9497934;30;20084;-74
2023/05/20 19:32:50;;;;;;;23.85;18.73;;;;;;;;;;9495941;30;20584;-73
2023/05/20 19:37:43;;;;;;;26.33;19.75;;;;;;;;;;9512693;30;20575;-70
2023/05/20 19:42:37;;;;;;;29.95;22.35;;;;;;;;;;9496617;30;20509;-70
2023/05/20 19:47:29;;;;;;;33.53;24.92;;;;;;;;;;9496082;30;20559;-71
2023/05/20 19:52:24;;;;;;;30.33;23.55;;;;;;;;;;9510999;30;20055;-74
2023/05/20 19:57:17;;;;;;;35.08;25.35;;;;;;;;;;9496735;30;20566;-72
2023/05/20 20:02:10;;;;;;;36.13;25.83;;;;;;;;;;9494776;30;20083;-73
2023/05/20 20:07:03;;;;;;;31.13;26.35;;;;;;;;;;9509526;30;20049;-73
2023/05/20 20:11:56;;;;;;;37.00;27.70;;;;;;;;;;9500260;30;20122;-73
2023/05/20 20:16:51;;;;;;;35.35;26.27;;;;;;;;;;9491095;30;20681;-71
2023/05/20 20:21:47;;;;;;;37.97;26.45;;;;;;;;;;9494939;30;20064;-75
2023/05/20 20:26:42;;;;;;;40.67;27.10;;;;;;;;;;9499642;30;20078;-72
2023/05/20 20:31:36;;;;;;;40.70;27.73;;;;;;;;;;9498646;30;20068;-71
2023/05/20 20:36:30;;;;;;;41.33;28.67;;;;;;;;;;9492509;30;20065;-70
2023/05/20 20:41:24;;;;;;;38.95;27.42;;;;;;;;;;9490429;30;20068;-73
2023/05/20 20:46:18;;;;;;;38.15;28.63;;;;;;;;;;9498010;30;20445;-71
2023/05/20 20:51:31;;;;;;;38.53;27.50;;;;;;;;;;9496766;30;20056;-71
2023/05/20 20:56:25;;;;;;;36.70;27.25;;;;;;;;;;9494682;30;20067;-71
2023/05/20 21:01:22;;;;;;;40.28;27.52;;;;;;;;;;9493191;30;20064;-71
2023/05/20 21:06:19;;;;;;;;;;;;;;;;;;9503306;30;20141;-72
2023/05/20 21:11:12;;;;;;;39.42;26.65;;;;;;;;;;9503588;29;20020;-77
2023/05/20 21:16:06;;;;;;;40.40;27.02;;;;;;;;;;9505202;30;20048;-76
2023/05/20 21:21:00;;;;;;;38.95;28.60;;;;;;;;;;9500297;30;20060;-76
2023/05/20 21:25:52;;;;;;;42.63;27.48;;;;;;;;;;9503360;30;20460;-76
2023/05/20 21:30:46;;;;;;;37.72;26.95;;;;;;;;;;9505273;30;20159;-77
2023/05/20 21:35:42;;;;;;;21.73;19.13;;;;;;;;;;9507110;30;20110;-72
2023/05/20 21:40:36;;;;;;;30.95;22.73;;;;;;;;;;9495300;30;20060;-72
2023/05/20 21:45:30;;;;;;;33.50;23.38;;;;;;;;;;9499282;30;20059;-72
2023/05/20 21:50:25;;;;;;;31.50;24.10;;;;;;;;;;9503822;30;20054;-73
2023/05/20 21:55:22;;;;;;;32.55;23.92;;;;;;;;;;9498146;30;20729;-73
2023/05/20 22:00:17;;;;;;;33.77;24.97;;;;;;;;;;9506725;30;20068;-75
2023/05/20 22:05:11;;;;;;;37.00;26.42;;;;;;;;;;9492164;30;20089;-73
2023/05/20 22:10:09;;;;;;;40.03;25.52;;;;;;;;;;9498257;30;20056;-75
2023/05/20 22:15:03;;;;;;;35.92;25.92;;;;;;;;;;9505854;30;20056;-74
2023/05/20 22:19:58;;;;;;;35.58;24.65;;;;;;;;;;9507020;30;20428;-72
2023/05/20 22:24:52;;;;;;;33.03;23.77;;;;;;;;;;9505940;30;20762;-73
2023/05/20 22:29:46;;;;;;;36.15;25.33;;;;;;;;;;9505574;30;20060;-74
2023/05/20 22:34:40;;;;;;;34.33;25.60;;;;;;;;;;9505713;30;20152;-75
2023/05/20 22:39:35;;;;;;;33.67;24.05;;;;;;;;;;9506111;30;20061;-76
2023/05/20 22:44:28;;;;;;;36.30;25.52;;;;;;;;;;9505864;30;20064;-76
2023/05/20 22:49:26;;;;;;;40.40;25.60;;;;;;;;;;9506245;30;20056;-77
2023/05/20 22:54:20;;;;;;;38.38;27.63;;;;;;;;;;9505120;30;20048;-74
2023/05/20 22:59:13;;;;;;;34.75;24.95;;;;;;;;;;9506191;30;20540;-75
2023/05/20 23:04:06;;;;;;;42.33;27.67;;;;;;;;;;9505167;30;20529;-75
2023/05/20 23:09:00;;;;;;;37.75;27.90;;;;;;;;;;9518702;30;20067;-74
2023/05/20 23:13:54;;;;;;;41.55;28.92;;;;;;;;;;9503165;30;20052;-74
2023/05/20 23:18:48;;;;;;;42.75;27.42;;;;;;;;;;9503623;30;20401;-74
2023/05/20 23:23:42;;;;;;;40.90;26.85;;;;;;;;;;9503404;30;20060;-72
2023/05/20 23:28:35;;;;;;;40.80;28.85;;;;;;;;;;9503253;30;20535;-73
2023/05/20 23:33:29;;;;;;;38.05;27.02;;;;;;;;;;9503589;30;20584;-78
2023/05/20 23:38:23;;;;;;;38.33;27.17;;;;;;;;;;9503686;30;20062;-77
2023/05/20 23:43:16;;;;;;;40.47;28.77;;;;;;;;;;9502630;30;20063;-77
2023/05/20 23:48:12;;;;;;;36.08;26.42;;;;;;;;;;9516619;30;20588;-77
2023/05/20 23:53:05;;;;;;;35.10;24.25;;;;;;;;;;9516847;30;20140;-78
2023/05/20 23:57:59;;;;;;;35.65;27.02;;;;;;;;;;9503472;30;20543;-78
